createdAt,value
2019-05-12T00:00:40.588Z,7.12
2019-05-12T00:03:12.011Z,7.04
2019-05-12T00:05:42.596Z,7.04
2019-05-12T00:08:13.379Z,6.98
2019-05-12T00:10:44.209Z,6.95
2019-05-12T00:13:14.644Z,7.02
2019-05-12T00:15:45.133Z,6.96
2019-05-12T00:18:18.075Z,6.87
2019-05-12T00:20:48.093Z,6.92
2019-05-12T00:23:24.949Z,6.92
2019-05-12T00:25:50.737Z,6.86
2019-05-12T00:28:21.173Z,6.84
2019-05-12T00:30:52.346Z,6.76
2019-05-12T00:33:22.770Z,6.80
2019-05-12T00:35:53.200Z,6.81
2019-05-12T00:38:24.413Z,6.76
2019-05-12T00:40:55.212Z,6.74
2019-05-12T00:43:27.927Z,6.70
2019-05-12T00:45:58.823Z,6.71
2019-05-12T00:48:29.640Z,6.68
2019-05-12T00:51:00.076Z,6.65
2019-05-12T00:53:39.614Z,6.64
2019-05-12T00:56:03.077Z,6.56
2019-05-12T00:58:34.839Z,6.60
2019-05-12T01:01:07.977Z,6.69
2019-05-12T01:03:38.221Z,6.68
2019-05-12T01:06:08.868Z,6.60
2019-05-12T01:08:39.347Z,6.59
2019-05-12T01:11:10.092Z,6.49
2019-05-12T01:13:40.517Z,6.50
2019-05-12T01:16:10.998Z,6.54
2019-05-12T01:18:41.748Z,6.55
2019-05-12T01:21:12.645Z,6.53
2019-05-12T01:23:53.814Z,6.54
2019-05-12T01:26:17.707Z,6.50
2019-05-12T01:28:48.765Z,6.44
2019-05-12T01:31:21.724Z,6.50
2019-05-12T01:33:52.156Z,6.40
2019-05-12T01:36:22.812Z,6.39
2019-05-12T01:38:53.620Z,6.42
2019-05-12T01:41:24.442Z,6.34
2019-05-12T01:43:54.916Z,6.31
2019-05-12T01:46:25.730Z,6.23
2019-05-12T01:48:58.930Z,6.24
2019-05-12T01:51:29.118Z,6.25
2019-05-12T01:54:10.973Z,6.18
2019-05-12T01:56:31.678Z,6.15
2019-05-12T01:59:02.149Z,6.25
2019-05-12T02:01:33.832Z,6.21
2019-05-12T02:04:04.554Z,6.25
2019-05-12T02:06:34.984Z,6.14
2019-05-12T02:09:08.872Z,6.23
2019-05-12T02:11:39.645Z,6.16
2019-05-12T02:14:10.075Z,6.15
2019-05-12T02:16:40.516Z,6.14
2019-05-12T02:19:11.344Z,6.10
2019-05-12T02:21:41.773Z,6.07
2019-05-12T02:24:23.469Z,6.05
2019-05-12T02:26:44.680Z,6.09
2019-05-12T02:29:15.111Z,6.08
2019-05-12T02:31:45.542Z,6.06
2019-05-12T02:34:16.109Z,6.08
2019-05-12T02:36:47.231Z,6.07
2019-05-12T02:39:17.648Z,6.04
2019-05-12T02:41:48.781Z,6.07
2019-05-12T02:44:19.485Z,6.01
2019-05-12T02:46:49.926Z,5.96
2019-05-12T02:49:20.399Z,6.01
2019-05-12T02:51:50.830Z,5.92
2019-05-12T02:54:27.014Z,5.94
2019-05-12T02:56:57.086Z,5.95
2019-05-12T02:59:30.223Z,5.96
2019-05-12T03:02:05.164Z,5.87
2019-05-12T03:04:35.559Z,5.84
2019-05-12T03:07:06.653Z,5.83
2019-05-12T03:09:39.369Z,5.83
2019-05-12T03:12:09.962Z,5.84
2019-05-12T03:14:41.242Z,5.80
2019-05-12T03:17:15.354Z,5.81
2019-05-12T03:19:45.443Z,5.77
2019-05-12T03:22:16.550Z,5.71
2019-05-12T03:25:05.988Z,5.76
2019-05-12T03:27:19.899Z,5.60
2019-05-12T03:29:50.593Z,5.57
2019-05-12T03:32:26.666Z,5.50
2019-05-12T03:34:57.828Z,5.54
2019-05-12T03:37:30.923Z,5.48
2019-05-12T03:39:58.618Z,5.48
2019-05-12T03:42:29.047Z,5.38
2019-05-12T03:44:59.829Z,5.46
2019-05-12T03:47:30.314Z,5.48
2019-05-12T03:50:04.357Z,5.40
2019-05-12T03:52:34.961Z,5.31
2019-05-12T03:55:06.024Z,5.31
2019-05-12T03:57:36.460Z,5.36
2019-05-12T04:00:07.340Z,5.39
2019-05-12T04:02:38.162Z,5.41
2019-05-12T04:05:09.099Z,5.42
2019-05-12T04:07:39.844Z,5.42
2019-05-12T04:10:14.775Z,5.36
2019-05-12T04:12:45.027Z,5.41
2019-05-12T04:15:16.039Z,5.52
2019-05-12T04:17:47.487Z,5.32
2019-05-12T04:20:17.902Z,5.35
2019-05-12T04:22:48.378Z,5.48
2019-05-12T04:25:18.810Z,5.45
2019-05-12T04:27:49.687Z,5.48
2019-05-12T04:30:20.873Z,5.54
2019-05-12T04:32:51.302Z,5.58
2019-05-12T04:35:24.876Z,5.63
2019-05-12T04:37:55.355Z,5.73
2019-05-12T04:40:26.094Z,5.82
2019-05-12T04:42:56.513Z,5.95
2019-05-12T04:45:27.414Z,5.94
2019-05-12T04:47:58.173Z,6.01
2019-05-12T04:50:28.609Z,6.04
2019-05-12T04:52:59.098Z,6.15
2019-05-12T04:55:29.859Z,6.19
2019-05-12T04:58:00.298Z,6.24
2019-05-12T05:00:34.472Z,6.36
2019-05-12T05:03:05.040Z,6.48
2019-05-12T05:05:36.369Z,6.54
2019-05-12T05:08:06.922Z,6.70
2019-05-12T05:10:37.981Z,6.64
2019-05-12T05:13:08.753Z,6.70
2019-05-12T05:15:39.248Z,6.72
2019-05-12T05:18:09.669Z,6.61
2019-05-12T05:20:40.091Z,6.56
2019-05-12T05:23:10.924Z,6.72
2019-05-12T05:25:43.455Z,6.80
2019-05-12T05:28:14.668Z,6.82
2019-05-12T05:30:46.092Z,6.83
2019-05-12T05:33:19.702Z,6.91
2019-05-12T05:35:49.339Z,6.90
2019-05-12T05:38:20.940Z,6.93
2019-05-12T05:40:53.988Z,6.99
2019-05-12T05:43:24.277Z,7.07
2019-05-12T05:46:02.644Z,7.02
2019-05-12T05:48:27.361Z,7.06
2019-05-12T05:50:59.913Z,7.18
2019-05-12T05:53:30.299Z,7.19
2019-05-12T05:56:01.056Z,7.28
2019-05-12T05:58:33.776Z,7.41
2019-05-12T06:01:07.766Z,7.58
2019-05-12T06:03:36.142Z,7.58
2019-05-12T06:06:12.171Z,7.66
2019-05-12T06:08:39.455Z,7.79
2019-05-12T06:11:14.688Z,7.80
2019-05-12T06:13:44.333Z,7.97
2019-05-12T06:16:20.390Z,8.01
2019-05-12T06:18:47.106Z,8.04
2019-05-12T06:21:18.323Z,8.14
2019-05-12T06:23:49.237Z,8.21
2019-05-12T06:26:21.029Z,8.23
2019-05-12T06:28:55.942Z,8.22
2019-05-12T06:31:29.623Z,8.47
2019-05-12T06:33:56.791Z,8.68
2019-05-12T06:36:28.039Z,8.90
2019-05-12T06:38:58.840Z,9.09
2019-05-12T06:41:29.953Z,9.30
2019-05-12T06:44:00.372Z,9.50
2019-05-12T06:46:31.272Z,9.49
2019-05-12T06:49:10.132Z,9.59
2019-05-12T06:51:34.084Z,9.73
2019-05-12T06:54:07.411Z,9.86
2019-05-12T06:56:36.760Z,9.96
2019-05-12T06:59:11.672Z,10.12
2019-05-12T07:01:39.373Z,10.30
2019-05-12T07:04:10.259Z,10.11
2019-05-12T07:06:41.090Z,10.02
2019-05-12T07:09:16.390Z,10.02
2019-05-12T07:11:52.983Z,10.27
2019-05-12T07:14:22.410Z,10.22
2019-05-12T07:17:01.394Z,10.34
2019-05-12T07:19:25.710Z,10.59
2019-05-12T07:22:00.105Z,10.70
2019-05-12T07:24:29.497Z,10.90
2019-05-12T07:27:04.407Z,10.86
2019-05-12T07:29:34.219Z,11.03
2019-05-12T07:32:07.223Z,11.19
2019-05-12T07:34:37.161Z,11.46
2019-05-12T07:37:07.986Z,11.52
2019-05-12T07:39:47.866Z,11.49
2019-05-12T07:42:13.423Z,11.71
2019-05-12T07:44:45.178Z,11.71
2019-05-12T07:47:19.197Z,11.47
2019-05-12T07:49:47.777Z,11.12
2019-05-12T07:52:18.229Z,11.14
2019-05-12T07:54:48.968Z,11.14
2019-05-12T07:57:20.026Z,11.09
2019-05-12T07:59:50.502Z,11.27
2019-05-12T08:02:25.519Z,11.38
2019-05-12T08:04:54.188Z,11.29
2019-05-12T08:07:28.817Z,11.34
2019-05-12T08:09:57.513Z,11.57
2019-05-12T08:12:28.243Z,11.69
2019-05-12T08:15:04.281Z,11.61
2019-05-12T08:17:33.532Z,11.57
2019-05-12T08:20:05.137Z,11.82
2019-05-12T08:22:36.796Z,12.04
2019-05-12T08:25:07.956Z,12.09
2019-05-12T08:27:39.250Z,12.43
2019-05-12T08:30:13.655Z,12.69
2019-05-12T08:32:44.357Z,12.37
2019-05-12T08:35:25.539Z,12.26
2019-05-12T08:37:48.766Z,12.08
2019-05-12T08:40:19.578Z,12.02
2019-05-12T08:42:50.027Z,12.23
2019-05-12T08:45:27.436Z,12.56
2019-05-12T08:47:54.631Z,12.87
2019-05-12T08:50:31.729Z,13.19
2019-05-12T08:52:57.300Z,13.21
2019-05-12T08:55:31.424Z,13.04
2019-05-12T08:57:59.862Z,13.10
2019-05-12T09:00:39.422Z,13.27
2019-05-12T09:03:08.347Z,13.41
2019-05-12T09:05:39.550Z,13.40
2019-05-12T09:08:10.025Z,13.34
2019-05-12T09:10:40.462Z,13.65
2019-05-12T09:13:10.888Z,13.80
2019-05-12T09:15:43.776Z,13.55
2019-05-12T09:18:14.676Z,13.14
2019-05-12T09:20:50.728Z,12.98
2019-05-12T09:23:17.631Z,13.26
2019-05-12T09:25:48.460Z,13.70
2019-05-12T09:28:19.401Z,14.00
2019-05-12T09:30:49.883Z,14.01
2019-05-12T09:33:21.526Z,13.85
2019-05-12T09:35:54.041Z,13.70
2019-05-12T09:38:26.384Z,13.42
2019-05-12T09:41:01.366Z,13.53
2019-05-12T09:43:29.601Z,13.42
2019-05-12T09:46:00.085Z,13.72
2019-05-12T09:48:30.906Z,13.90
2019-05-12T09:51:04.278Z,14.04
2019-05-12T09:53:34.109Z,13.81
2019-05-12T09:56:04.741Z,14.08
2019-05-12T09:58:36.156Z,14.48
2019-05-12T10:01:06.745Z,14.57
2019-05-12T10:03:39.995Z,14.63
2019-05-12T10:06:11.457Z,14.40
2019-05-12T10:08:43.424Z,14.22
2019-05-12T10:11:16.555Z,14.55
2019-05-12T10:13:46.065Z,14.88
2019-05-12T10:16:16.873Z,14.62
2019-05-12T10:18:51.108Z,14.54
2019-05-12T10:21:19.929Z,14.64
2019-05-12T10:24:00.132Z,14.98
2019-05-12T10:26:23.960Z,15.18
2019-05-12T10:28:58.392Z,15.32
2019-05-12T10:31:29.478Z,15.58
2019-05-12T10:34:19.233Z,15.50
2019-05-12T10:36:50.488Z,15.65
2019-05-12T10:39:20.920Z,15.77
2019-05-12T10:41:51.397Z,15.85
2019-05-12T10:44:22.233Z,15.67
2019-05-12T10:46:55.627Z,15.59
2019-05-12T10:49:26.125Z,15.43
2019-05-12T10:51:56.575Z,15.77
2019-05-12T10:54:27.747Z,16.06
2019-05-12T10:56:58.658Z,16.30
2019-05-12T10:59:33.140Z,16.45
2019-05-12T11:02:03.544Z,16.23
2019-05-12T11:04:38.988Z,15.79
2019-05-12T11:07:06.983Z,15.70
2019-05-12T11:09:37.426Z,15.95
2019-05-12T11:12:07.927Z,16.05
2019-05-12T11:14:38.380Z,15.88
2019-05-12T11:17:10.199Z,15.74
2019-05-12T11:19:49.298Z,15.55
2019-05-12T11:22:13.986Z,15.40
2019-05-12T11:24:44.619Z,15.09
2019-05-12T11:27:15.913Z,15.27
2019-05-12T11:29:49.481Z,15.75
2019-05-12T11:32:18.778Z,15.97
2019-05-12T11:34:49.301Z,15.85
2019-05-12T11:37:19.743Z,15.66
2019-05-12T11:39:50.256Z,15.42
2019-05-12T11:42:21.148Z,15.40
2019-05-12T11:44:52.241Z,15.55
2019-05-12T11:47:25.851Z,15.96
2019-05-12T11:49:58.465Z,16.21
2019-05-12T11:52:28.193Z,15.99
2019-05-12T11:54:58.634Z,15.71
2019-05-12T11:57:30.350Z,15.37
2019-05-12T12:00:02.236Z,15.36
2019-05-12T12:02:34.251Z,15.92
2019-05-12T12:05:05.315Z,16.40
2019-05-12T12:07:38.904Z,16.78
2019-05-12T12:10:08.331Z,16.71
2019-05-12T12:12:39.511Z,16.47
2019-05-12T12:15:13.651Z,16.15
2019-05-12T12:17:44.135Z,16.27
2019-05-12T12:20:22.273Z,16.74
2019-05-12T12:22:48.915Z,16.99
2019-05-12T12:25:23.803Z,17.46
2019-05-12T12:27:55.289Z,17.36
2019-05-12T12:30:26.898Z,17.43
2019-05-12T12:33:00.370Z,17.86
2019-05-12T12:35:29.519Z,18.02
2019-05-12T12:37:59.977Z,17.95
2019-05-12T12:40:30.776Z,17.95
2019-05-12T12:43:03.690Z,18.01
2019-05-12T12:45:40.454Z,17.77
2019-05-12T12:48:13.557Z,17.31
2019-05-12T12:50:44.531Z,16.80
2019-05-12T12:53:15.157Z,16.52
2019-05-12T12:55:46.311Z,16.63
2019-05-12T12:58:21.221Z,17.12
2019-05-12T13:00:53.783Z,17.63
2019-05-12T13:03:25.721Z,18.03
2019-05-12T13:05:54.311Z,18.44
2019-05-12T13:08:25.571Z,18.77
2019-05-12T13:10:56.034Z,18.89
2019-05-12T13:13:26.770Z,18.54
2019-05-12T13:15:57.285Z,18.63
2019-05-12T13:18:32.870Z,18.93
2019-05-12T13:21:03.223Z,19.03
2019-05-12T13:23:40.499Z,18.94
2019-05-12T13:26:05.209Z,19.10
2019-05-12T13:28:35.925Z,19.34
2019-05-12T13:31:12.832Z,19.15
2019-05-12T13:33:39.208Z,18.87
2019-05-12T13:36:09.658Z,18.53
2019-05-12T13:38:40.748Z,18.10
2019-05-12T13:41:15.948Z,17.92
2019-05-12T13:43:43.900Z,17.57
2019-05-12T13:46:14.451Z,17.37
2019-05-12T13:48:49.756Z,17.37
2019-05-12T13:51:17.749Z,18.02
2019-05-12T13:53:50.302Z,18.59
2019-05-12T13:56:25.834Z,18.79
2019-05-12T13:58:53.977Z,19.05
2019-05-12T14:01:25.157Z,18.93
2019-05-12T14:03:56.034Z,18.50
2019-05-12T14:06:31.994Z,18.00
2019-05-12T14:08:58.600Z,17.76
2019-05-12T14:11:29.076Z,17.36
2019-05-12T14:14:00.249Z,17.06
2019-05-12T14:16:31.081Z,16.77
2019-05-12T14:19:03.605Z,16.55
2019-05-12T14:21:41.236Z,16.44
2019-05-12T14:24:05.945Z,16.25
2019-05-12T14:26:39.411Z,16.22
2019-05-12T14:29:08.525Z,16.06
2019-05-12T14:31:48.476Z,16.10
2019-05-12T14:34:18.733Z,16.18
2019-05-12T14:36:43.763Z,16.51
2019-05-12T14:39:14.200Z,16.86
2019-05-12T14:41:53.064Z,16.89
2019-05-12T14:44:17.837Z,16.80
2019-05-12T14:46:50.641Z,16.43
2019-05-12T14:49:28.525Z,16.42
2019-05-12T14:51:53.750Z,16.23
2019-05-12T14:54:24.216Z,16.00
2019-05-12T14:56:57.754Z,15.72
2019-05-12T14:59:30.211Z,15.47
2019-05-12T15:02:03.267Z,15.30
2019-05-12T15:04:32.161Z,15.20
2019-05-12T15:07:08.017Z,15.18
2019-05-12T15:09:36.885Z,15.31
2019-05-12T15:12:07.339Z,15.27
2019-05-12T15:14:38.318Z,15.27
2019-05-12T15:17:13.830Z,15.38
2019-05-12T15:19:43.864Z,15.39
2019-05-12T15:22:14.792Z,15.51
2019-05-12T15:24:49.218Z,15.57
2019-05-12T15:27:17.612Z,15.62
2019-05-12T15:29:50.091Z,15.58
2019-05-12T15:32:20.272Z,15.52
2019-05-12T15:34:50.702Z,15.47
2019-05-12T15:37:23.767Z,15.50
2019-05-12T15:39:54.066Z,15.59
2019-05-12T15:42:24.891Z,15.48
2019-05-12T15:44:56.616Z,15.57
2019-05-12T15:47:29.925Z,15.53
2019-05-12T15:49:59.373Z,15.48
2019-05-12T15:52:38.272Z,15.56
2019-05-12T15:55:04.738Z,15.57
2019-05-12T15:57:37.332Z,15.67
2019-05-12T16:00:08.044Z,15.64
2019-05-12T16:02:39.814Z,15.58
2019-05-12T16:05:10.330Z,15.72
2019-05-12T16:07:43.610Z,15.71
2019-05-12T16:10:14.826Z,15.68
2019-05-12T16:12:45.318Z,15.63
2019-05-12T16:15:19.132Z,15.70
2019-05-12T16:17:48.499Z,15.63
2019-05-12T16:20:20.134Z,15.58
2019-05-12T16:22:53.169Z,15.52
2019-05-12T16:25:29.055Z,15.47
2019-05-12T16:27:56.187Z,15.47
2019-05-12T16:30:27.342Z,15.43
2019-05-12T16:32:58.414Z,15.38
2019-05-12T16:35:31.816Z,15.33
2019-05-12T16:38:05.910Z,15.20
2019-05-12T16:40:34.506Z,15.09
2019-05-12T16:43:06.438Z,14.88
2019-05-12T16:45:36.967Z,14.73
2019-05-12T16:48:11.330Z,14.65
2019-05-12T16:50:40.501Z,14.47
2019-05-12T16:53:13.403Z,14.41
2019-05-12T16:55:48.483Z,14.32
2019-05-12T16:58:15.688Z,14.26
2019-05-12T17:00:49.737Z,14.26
2019-05-12T17:03:18.881Z,14.21
2019-05-12T17:05:50.175Z,14.13
2019-05-12T17:08:23.876Z,14.09
2019-05-12T17:11:00.895Z,13.97
2019-05-12T17:13:27.643Z,14.00
2019-05-12T17:16:00.131Z,13.93
2019-05-12T17:18:33.725Z,13.79
2019-05-12T17:21:04.432Z,13.81
2019-05-12T17:23:38.997Z,13.84
2019-05-12T17:26:09.448Z,13.75
2019-05-12T17:28:40.097Z,13.78
2019-05-12T17:31:10.528Z,13.71
2019-05-12T17:33:43.284Z,13.63
2019-05-12T17:36:17.568Z,13.66
2019-05-12T17:38:51.062Z,13.60
2019-05-12T17:41:18.914Z,13.58
2019-05-12T17:43:59.573Z,13.53
2019-05-12T17:46:24.377Z,13.61
2019-05-12T17:48:55.219Z,13.54
2019-05-12T17:51:30.795Z,13.52
2019-05-12T17:53:59.047Z,13.41
2019-05-12T17:56:36.677Z,13.42
2019-05-12T17:59:04.374Z,13.43
2019-05-12T18:01:35.702Z,13.37
2019-05-12T18:04:06.072Z,13.27
2019-05-12T18:06:36.833Z,13.25
2019-05-12T18:09:14.933Z,13.19
2019-05-12T18:11:46.303Z,13.17
2019-05-12T18:14:17.573Z,13.06
2019-05-12T18:16:53.941Z,13.05
2019-05-12T18:19:20.572Z,12.98
2019-05-12T18:21:54.900Z,12.94
2019-05-12T18:24:24.334Z,12.90
2019-05-12T18:27:02.149Z,12.79
2019-05-12T18:29:28.217Z,12.70
2019-05-12T18:31:59.510Z,12.69
2019-05-12T18:34:30.891Z,12.66
2019-05-12T18:37:01.386Z,12.59
2019-05-12T18:39:34.333Z,12.55
2019-05-12T18:42:04.689Z,12.45
2019-05-12T18:44:35.842Z,12.46
2019-05-12T18:47:06.297Z,12.40
2019-05-12T18:49:42.095Z,12.31
2019-05-12T18:52:14.403Z,12.28
2019-05-12T18:54:52.245Z,12.23
2019-05-12T18:57:16.833Z,12.13
2019-05-12T18:59:54.274Z,12.15
2019-05-12T19:02:23.554Z,12.06
2019-05-12T19:04:53.845Z,12.05
2019-05-12T19:07:38.979Z,11.97
2019-05-12T19:09:59.174Z,11.87
2019-05-12T19:12:32.624Z,11.82
2019-05-12T19:15:04.320Z,11.68
2019-05-12T19:17:33.960Z,11.66
2019-05-12T19:20:05.299Z,11.68
2019-05-12T19:22:39.362Z,11.54
2019-05-12T19:25:08.242Z,11.60
2019-05-12T19:27:39.060Z,11.47
2019-05-12T19:30:09.533Z,11.42
2019-05-12T19:32:41.145Z,11.32
2019-05-12T19:35:15.901Z,11.31
2019-05-12T19:37:45.323Z,11.27
2019-05-12T19:40:17.676Z,11.18
2019-05-12T19:42:53.841Z,11.10
2019-05-12T19:45:24.912Z,11.05
2019-05-12T19:47:54.997Z,10.98
2019-05-12T19:50:25.775Z,10.99
2019-05-12T19:52:56.279Z,10.91
2019-05-12T19:55:26.712Z,10.89
2019-05-12T19:57:57.167Z,10.80
2019-05-12T20:00:27.958Z,10.72
2019-05-12T20:02:58.753Z,10.74
2019-05-12T20:05:30.780Z,10.67
2019-05-12T20:08:01.283Z,10.62
2019-05-12T20:10:44.845Z,10.54
2019-05-12T20:13:08.979Z,10.45
2019-05-12T20:15:41.640Z,10.38
2019-05-12T20:18:14.724Z,10.41
2019-05-12T20:20:46.247Z,10.42
2019-05-12T20:23:16.699Z,10.31
2019-05-12T20:25:49.506Z,10.22
2019-05-12T20:28:20.925Z,10.16
2019-05-12T20:30:54.325Z,10.10
2019-05-12T20:33:24.191Z,10.11
2019-05-12T20:35:54.907Z,9.98
2019-05-12T20:38:33.940Z,9.94
2019-05-12T20:40:58.114Z,9.92
2019-05-12T20:43:32.404Z,9.87
2019-05-12T20:46:03.718Z,9.86
2019-05-12T20:48:35.323Z,9.77
2019-05-12T20:51:08.739Z,9.69
2019-05-12T20:53:38.249Z,9.73
2019-05-12T20:56:12.121Z,9.73
2019-05-12T20:58:43.570Z,9.66
2019-05-12T21:01:13.979Z,9.58
2019-05-12T21:03:46.363Z,9.54
2019-05-12T21:06:18.589Z,9.53
2019-05-12T21:08:53.952Z,9.44
2019-05-12T21:11:20.926Z,9.36
2019-05-12T21:13:51.412Z,9.31
2019-05-12T21:16:30.904Z,9.26
2019-05-12T21:19:02.123Z,9.27
2019-05-12T21:21:33.158Z,9.27
2019-05-12T21:23:59.423Z,9.26
2019-05-12T21:26:34.754Z,9.20
2019-05-12T21:29:04.722Z,9.07
2019-05-12T21:31:35.633Z,8.99
2019-05-12T21:34:06.863Z,9.03
2019-05-12T21:36:37.351Z,9.01
2019-05-12T21:39:10.384Z,8.88
2019-05-12T21:41:46.380Z,8.91
2019-05-12T21:44:14.219Z,8.97
2019-05-12T21:46:57.413Z,8.86
2019-05-12T21:49:17.013Z,8.80
2019-05-12T21:51:50.549Z,8.71
2019-05-12T21:54:20.616Z,8.62
2019-05-12T21:56:51.389Z,8.51
2019-05-12T21:59:23.342Z,8.59
2019-05-12T22:01:54.194Z,8.58
2019-05-12T22:04:24.694Z,8.60
2019-05-12T22:06:56.963Z,8.46
2019-05-12T22:09:34.979Z,8.28
2019-05-12T22:12:00.007Z,8.16
2019-05-12T22:14:38.659Z,8.08
2019-05-12T22:17:04.551Z,8.01
2019-05-12T22:19:38.087Z,7.79
2019-05-12T22:22:07.850Z,7.68
2019-05-12T22:24:39.089Z,7.52
2019-05-12T22:27:16.145Z,7.52
2019-05-12T22:29:43.683Z,7.39
2019-05-12T22:32:19.163Z,7.10
2019-05-12T22:34:47.117Z,7.12
2019-05-12T22:37:17.909Z,7.06
2019-05-12T22:39:48.343Z,6.91
2019-05-12T22:42:21.678Z,6.90
2019-05-12T22:44:53.018Z,6.92
2019-05-12T22:47:24.072Z,6.91
2019-05-12T22:49:56.932Z,6.92
2019-05-12T22:52:27.861Z,6.90
2019-05-12T22:54:58.287Z,6.86
2019-05-12T22:57:29.117Z,6.81
2019-05-12T23:00:03.834Z,6.85
2019-05-12T23:02:33.837Z,6.78
2019-05-12T23:05:05.136Z,6.64
2019-05-12T23:07:35.560Z,6.55
2019-05-12T23:10:11.030Z,6.50
2019-05-12T23:12:39.580Z,6.45
2019-05-12T23:15:10.473Z,6.45
2019-05-12T23:17:45.388Z,6.45
2019-05-12T23:20:13.823Z,6.44
2019-05-12T23:22:44.684Z,6.45
2019-05-12T23:25:20.012Z,6.42
2019-05-12T23:27:47.693Z,6.37
2019-05-12T23:30:18.116Z,6.39
2019-05-12T23:32:51.507Z,6.45
2019-05-12T23:35:21.374Z,6.39
2019-05-12T23:37:53.591Z,6.34
2019-05-12T23:40:24.226Z,6.36
2019-05-12T23:42:54.979Z,6.32
2019-05-12T23:45:25.409Z,6.19
2019-05-12T23:47:56.556Z,6.15
2019-05-12T23:50:26.990Z,6.06
2019-05-12T23:52:57.505Z,5.97
2019-05-12T23:55:28.805Z,5.81
2019-05-12T23:58:00.386Z,5.74
